createdAt,value
2018-09-05T00:01:14.499Z,98031.06
2018-09-05T00:03:43.073Z,98036.39
2018-09-05T00:06:11.265Z,98030.06
2018-09-05T00:08:39.458Z,98024.98
2018-09-05T00:11:07.685Z,98025.22
2018-09-05T00:13:35.865Z,98024.92
2018-09-05T00:16:04.164Z,98036.72
2018-09-05T00:18:32.753Z,98037.56
2018-09-05T00:21:00.996Z,98033.98
2018-09-05T00:23:29.312Z,98026.31
2018-09-05T00:25:57.611Z,98028.87
2018-09-05T00:28:25.846Z,98023.39
2018-09-05T00:30:54.338Z,98021.43
2018-09-05T00:33:22.604Z,98012.79
2018-09-05T00:35:50.993Z,98010.63
2018-09-05T00:38:19.316Z,98016.58
2018-09-05T00:40:47.509Z,98010.75
2018-09-05T00:43:15.681Z,98015.20
2018-09-05T00:45:43.925Z,98020.12
2018-09-05T00:48:12.150Z,98022.17
2018-09-05T00:50:40.325Z,98024.14
2018-09-05T00:53:08.539Z,98028.89
2018-09-05T00:55:36.966Z,98023.36
2018-09-05T00:58:05.162Z,98024.73
2018-09-05T01:00:33.505Z,98029.46
2018-09-05T01:03:01.685Z,98032.22
2018-09-05T01:05:29.857Z,98031.83
2018-09-05T01:07:58.189Z,98022.58
2018-09-05T01:10:26.473Z,98019.63
2018-09-05T01:12:54.709Z,98020.64
2018-09-05T01:15:22.939Z,98021.44
2018-09-05T01:17:51.117Z,98015.93
2018-09-05T01:20:19.284Z,98020.42
2018-09-05T01:22:47.471Z,98009.59
2018-09-05T01:25:15.685Z,98011.20
2018-09-05T01:27:43.956Z,98010.02
2018-09-05T01:30:12.150Z,98016.88
2018-09-05T01:32:40.388Z,98004.90
2018-09-05T01:35:09.802Z,98012.00
2018-09-05T01:37:38.048Z,98007.44
2018-09-05T01:40:06.276Z,98006.56
2018-09-05T01:42:34.476Z,98010.01
2018-09-05T01:45:02.691Z,98006.84
2018-09-05T01:47:30.870Z,98018.66
2018-09-05T01:49:59.038Z,98008.02
2018-09-05T01:52:27.257Z,98010.80
2018-09-05T01:54:55.432Z,98007.45
2018-09-05T01:57:23.617Z,98004.99
2018-09-05T01:59:51.810Z,98011.27
2018-09-05T02:02:19.987Z,98010.63
2018-09-05T02:04:48.159Z,98012.17
2018-09-05T02:07:16.366Z,98008.20
2018-09-05T02:09:44.553Z,98008.33
2018-09-05T02:12:12.733Z,98008.70
2018-09-05T02:14:41.249Z,98007.36
2018-09-05T02:17:09.427Z,98009.72
2018-09-05T02:19:37.957Z,98007.72
2018-09-05T02:22:06.148Z,98006.39
2018-09-05T02:24:34.354Z,98002.61
2018-09-05T02:27:02.633Z,98003.86
2018-09-05T02:29:30.918Z,97998.90
2018-09-05T02:31:59.154Z,98004.08
2018-09-05T02:34:27.426Z,98003.20
2018-09-05T02:36:55.968Z,98001.63
2018-09-05T02:39:24.151Z,97995.34
2018-09-05T02:41:52.335Z,97998.50
2018-09-05T02:44:22.006Z,98000.94
2018-09-05T02:46:50.900Z,98003.55
2018-09-05T02:49:19.150Z,98000.08
2018-09-05T02:51:47.965Z,98007.66
2018-09-05T02:54:16.464Z,98005.17
2018-09-05T02:56:44.677Z,98013.63
2018-09-05T02:59:13.007Z,98016.61
2018-09-05T03:01:41.237Z,98020.14
2018-09-05T03:04:09.506Z,98012.19
2018-09-05T03:06:37.701Z,98008.75
2018-09-05T03:09:07.621Z,98008.75
2018-09-05T03:11:36.105Z,98011.00
2018-09-05T03:14:04.666Z,98009.56
2018-09-05T03:16:32.833Z,98013.49
2018-09-05T03:19:04.109Z,98015.84
2018-09-05T03:21:29.287Z,98020.37
2018-09-05T03:23:57.454Z,98015.59
2018-09-05T03:26:25.733Z,98017.41
2018-09-05T03:28:54.256Z,98012.73
2018-09-05T03:31:22.546Z,98013.17
2018-09-05T03:33:50.861Z,98011.87
2018-09-05T03:36:19.064Z,98018.54
2018-09-05T03:38:47.354Z,98019.08
2018-09-05T03:41:15.534Z,98020.66
2018-09-05T03:43:43.736Z,98023.80
2018-09-05T03:46:41.734Z,98021.81
2018-09-05T03:49:10.242Z,98024.38
2018-09-05T03:51:38.414Z,98027.13
2018-09-05T03:54:07.186Z,98033.05
2018-09-05T03:56:35.480Z,98026.62
2018-09-05T03:59:03.717Z,98026.33
2018-09-05T04:01:31.885Z,98029.38
2018-09-05T04:04:00.395Z,98021.55
2018-09-05T04:06:28.678Z,98022.69
2018-09-05T04:08:57.269Z,98025.83
2018-09-05T04:11:25.545Z,98028.92
2018-09-05T04:13:53.717Z,98031.15
2018-09-05T04:16:21.978Z,98033.80
2018-09-05T04:18:50.203Z,98028.48
2018-09-05T04:21:18.433Z,98031.23
2018-09-05T04:23:47.684Z,98037.51
2018-09-05T04:26:17.101Z,98039.49
2018-09-05T04:28:45.289Z,98034.55
2018-09-05T04:31:14.665Z,98030.41
2018-09-05T04:33:43.337Z,98039.88
2018-09-05T04:36:13.371Z,98039.73
2018-09-05T04:38:42.368Z,98041.17
2018-09-05T04:41:10.585Z,98040.11
2018-09-05T04:43:39.253Z,98041.95
2018-09-05T04:46:07.452Z,98038.08
2018-09-05T04:48:35.651Z,98039.47
2018-09-05T04:51:03.842Z,98043.54
2018-09-05T04:53:32.192Z,98046.45
2018-09-05T04:56:01.092Z,98051.97
2018-09-05T04:58:29.293Z,98045.30
2018-09-05T05:00:57.468Z,98047.75
2018-09-05T05:03:25.686Z,98049.55
2018-09-05T05:05:54.266Z,98055.23
2018-09-05T05:08:23.200Z,98058.77
2018-09-05T05:10:51.372Z,98058.98
2018-09-05T05:13:19.832Z,98062.12
2018-09-05T05:15:48.028Z,98059.25
2018-09-05T05:18:16.216Z,98053.62
2018-09-05T05:20:44.410Z,98051.30
2018-09-05T05:23:12.598Z,98059.66
2018-09-05T05:25:40.791Z,98056.69
2018-09-05T05:28:09.074Z,98058.77
2018-09-05T05:30:37.262Z,98060.66
2018-09-05T05:33:05.598Z,98061.03
2018-09-05T05:35:33.787Z,98063.02
2018-09-05T05:38:02.115Z,98060.11
2018-09-05T05:40:30.369Z,98061.67
2018-09-05T05:42:58.558Z,98073.33
2018-09-05T05:45:26.773Z,98065.03
2018-09-05T05:47:54.973Z,98069.91
2018-09-05T05:50:23.163Z,98076.66
2018-09-05T05:52:51.361Z,98071.38
2018-09-05T05:55:19.529Z,98076.66
2018-09-05T05:57:47.708Z,98075.63
2018-09-05T06:00:15.905Z,98078.68
2018-09-05T06:02:44.097Z,98080.73
2018-09-05T06:05:12.290Z,98077.75
2018-09-05T06:07:40.477Z,98077.86
2018-09-05T06:10:08.537Z,98078.59
2018-09-05T06:12:36.753Z,98078.84
2018-09-05T06:15:04.997Z,98078.72
2018-09-05T06:17:33.208Z,98081.45
2018-09-05T06:20:01.750Z,98083.66
2018-09-05T06:22:30.228Z,98092.70
2018-09-05T06:24:58.434Z,98088.76
2018-09-05T06:27:26.630Z,98079.91
2018-09-05T06:29:54.838Z,98081.70
2018-09-05T06:32:23.062Z,98079.71
2018-09-05T06:34:51.248Z,98081.10
2018-09-05T06:37:19.438Z,98082.30
2018-09-05T06:39:47.682Z,98089.48
2018-09-05T06:42:16.082Z,98088.11
2018-09-05T06:44:44.329Z,98093.62
2018-09-05T06:47:12.505Z,98092.84
2018-09-05T06:49:40.952Z,98098.55
2018-09-05T06:52:09.170Z,98102.30
2018-09-05T06:54:37.425Z,98105.23
2018-09-05T06:57:05.703Z,98107.95
2018-09-05T06:59:33.894Z,98111.82
2018-09-05T07:02:02.757Z,98115.48
2018-09-05T07:04:30.940Z,98117.47
2018-09-05T07:06:59.201Z,98111.23
2018-09-05T07:09:27.325Z,98118.63
2018-09-05T07:11:55.541Z,98114.55
2018-09-05T07:14:23.754Z,98120.08
2018-09-05T07:16:52.033Z,98119.88
2018-09-05T07:19:20.280Z,98117.34
2018-09-05T07:21:48.814Z,98128.80
2018-09-05T07:24:17.069Z,98129.20
2018-09-05T07:26:45.303Z,98130.75
2018-09-05T07:29:13.594Z,98130.78
2018-09-05T07:31:41.800Z,98125.81
2018-09-05T07:34:10.032Z,98125.83
2018-09-05T07:36:38.225Z,98131.90
2018-09-05T07:39:09.096Z,98125.44
2018-09-05T07:41:38.031Z,98126.22
2018-09-05T07:44:06.575Z,98126.42
2018-09-05T07:46:34.851Z,98130.34
2018-09-05T07:49:03.040Z,98129.94
2018-09-05T07:51:31.297Z,98131.34
2018-09-05T07:53:59.529Z,98134.31
2018-09-05T07:56:27.777Z,98130.84
2018-09-05T07:58:55.989Z,98129.59
2018-09-05T08:01:24.185Z,98134.66
2018-09-05T08:03:52.851Z,98134.05
2018-09-05T08:06:21.025Z,98130.39
2018-09-05T08:08:49.234Z,98134.81
2018-09-05T08:11:17.440Z,98136.73
2018-09-05T08:13:45.642Z,98133.95
2018-09-05T08:16:13.975Z,98135.44
2018-09-05T08:18:42.191Z,98140.09
2018-09-05T08:21:10.578Z,98153.62
2018-09-05T08:23:38.769Z,98153.03
2018-09-05T08:26:07.010Z,98158.00
2018-09-05T08:28:35.260Z,98151.83
2018-09-05T08:31:03.441Z,98153.95
2018-09-05T08:33:31.660Z,98155.50
2018-09-05T08:36:00.290Z,98153.51
2018-09-05T08:38:28.162Z,98152.28
2018-09-05T08:40:56.385Z,98152.30
2018-09-05T08:43:24.816Z,98151.30
2018-09-05T08:45:53.244Z,98143.41
2018-09-05T08:48:21.507Z,98144.24
2018-09-05T08:50:49.631Z,98144.62
2018-09-05T08:53:17.887Z,98152.92
2018-09-05T08:55:46.096Z,98149.58
2018-09-05T08:58:14.311Z,98147.22
2018-09-05T09:00:42.495Z,98144.76
2018-09-05T09:03:10.757Z,98150.17
2018-09-05T09:05:38.999Z,98146.28
2018-09-05T09:08:07.183Z,98150.61
2018-09-05T09:10:35.373Z,98150.59
2018-09-05T09:13:03.549Z,98147.92
2018-09-05T09:15:31.837Z,98143.03
2018-09-05T09:18:00.047Z,98144.61
2018-09-05T09:20:28.231Z,98143.67
2018-09-05T09:22:56.401Z,98147.90
2018-09-05T09:25:24.759Z,98148.18
2018-09-05T09:27:52.948Z,98140.50
2018-09-05T09:30:21.191Z,98139.25
2018-09-05T09:32:49.384Z,98141.61
2018-09-05T09:35:17.798Z,98142.20
2018-09-05T09:37:46.008Z,98135.69
2018-09-05T09:40:14.282Z,98130.75
2018-09-05T09:42:42.552Z,98129.28
2018-09-05T09:45:10.734Z,98130.75
2018-09-05T09:47:39.020Z,98135.04
2018-09-05T09:50:07.361Z,98126.12
2018-09-05T09:52:39.370Z,98126.05
2018-09-05T09:55:08.380Z,98120.25
2018-09-05T09:57:36.874Z,98123.59
2018-09-05T10:00:05.963Z,98118.30
2018-09-05T10:02:39.358Z,98118.91
2018-09-05T10:05:12.917Z,98115.17
2018-09-05T10:07:46.509Z,98116.08
2018-09-05T10:10:20.338Z,98115.00
2018-09-05T10:12:50.517Z,98113.88
2018-09-05T10:15:24.086Z,98115.33
2018-09-05T10:17:58.051Z,98110.20
2018-09-05T10:20:26.343Z,98112.78
2018-09-05T10:22:54.601Z,98106.00
2018-09-05T10:25:22.791Z,98109.45
2018-09-05T10:27:51.192Z,98114.16
2018-09-05T10:30:19.437Z,98109.63
2018-09-05T10:32:47.593Z,98105.06
2018-09-05T10:35:15.785Z,98108.00
2018-09-05T10:37:44.045Z,98100.84
2018-09-05T10:40:12.285Z,98101.81
2018-09-05T10:42:40.469Z,98102.83
2018-09-05T10:45:08.659Z,98092.20
2018-09-05T10:47:36.862Z,98094.11
2018-09-05T10:50:05.060Z,98084.28
2018-09-05T10:52:33.297Z,98090.83
2018-09-05T10:55:01.650Z,98081.53
2018-09-05T10:57:29.851Z,98088.59
2018-09-05T10:59:58.096Z,98078.22
2018-09-05T11:02:26.290Z,98077.06
2018-09-05T11:04:54.736Z,98083.14
2018-09-05T11:07:22.881Z,98088.77
2018-09-05T11:09:51.130Z,98079.96
2018-09-05T11:12:19.332Z,98084.44
2018-09-05T11:14:47.907Z,98087.27
2018-09-05T11:17:16.106Z,98076.36
2018-09-05T11:19:44.345Z,98084.45
2018-09-05T11:22:12.541Z,98078.72
2018-09-05T11:24:40.744Z,98068.41
2018-09-05T11:27:08.933Z,98068.89
2018-09-05T11:29:37.109Z,98069.80
2018-09-05T11:32:05.337Z,98069.39
2018-09-05T11:34:33.598Z,98063.05
2018-09-05T11:37:01.819Z,98057.39
2018-09-05T11:39:29.982Z,98054.38
2018-09-05T11:41:58.226Z,98053.60
2018-09-05T11:44:26.711Z,98051.69
2018-09-05T11:46:54.897Z,98059.63
2018-09-05T11:49:23.154Z,98050.09
2018-09-05T11:51:51.322Z,98045.90
2018-09-05T11:54:19.504Z,98043.79
2018-09-05T11:56:47.800Z,98049.31
2018-09-05T11:59:16.086Z,98047.38
2018-09-05T12:01:44.272Z,98038.27
2018-09-05T12:04:12.453Z,98036.52
2018-09-05T12:06:40.950Z,98039.52
2018-09-05T12:09:10.654Z,98038.50
2018-09-05T12:11:39.034Z,98034.05
2018-09-05T12:14:07.702Z,98031.45
2018-09-05T12:16:36.708Z,98027.84
2018-09-05T12:19:05.497Z,98024.31
2018-09-05T12:21:33.673Z,98027.11
2018-09-05T12:24:01.899Z,98025.10
2018-09-05T12:26:30.213Z,98009.28
2018-09-05T12:28:58.398Z,98010.88
2018-09-05T12:31:26.613Z,98001.87
2018-09-05T12:33:54.841Z,98001.16
2018-09-05T12:36:23.386Z,98000.47
2018-09-05T12:38:51.674Z,97998.72
2018-09-05T12:41:19.949Z,98001.06
2018-09-05T12:43:48.122Z,97993.41
2018-09-05T12:46:16.326Z,97994.53
2018-09-05T12:48:44.510Z,97991.06
2018-09-05T12:51:12.737Z,97983.20
2018-09-05T12:53:41.014Z,97989.16
2018-09-05T12:56:09.234Z,97986.32
2018-09-05T12:58:37.465Z,97983.55
2018-09-05T13:01:05.732Z,97982.08
2018-09-05T13:03:33.947Z,97979.59
2018-09-05T13:06:02.328Z,97977.41
2018-09-05T13:08:30.578Z,97970.18
2018-09-05T13:10:58.836Z,97975.05
2018-09-05T13:13:27.106Z,97969.70
2018-09-05T13:15:55.307Z,97963.56
2018-09-05T13:18:23.502Z,97960.53
2018-09-05T13:20:51.706Z,97965.87
2018-09-05T13:23:19.949Z,97962.65
2018-09-05T13:25:48.196Z,97964.69
2018-09-05T13:28:16.380Z,97959.56
2018-09-05T13:30:44.561Z,97951.14
2018-09-05T13:33:13.166Z,97948.94
2018-09-05T13:35:41.511Z,97945.52
2018-09-05T13:38:09.887Z,97946.95
2018-09-05T13:40:38.571Z,97941.73
2018-09-05T13:43:07.057Z,97934.99
2018-09-05T13:45:35.263Z,97938.75
2018-09-05T13:48:03.855Z,97930.98
2018-09-05T13:50:32.290Z,97938.30
2018-09-05T13:53:00.543Z,97937.28
2018-09-05T13:55:28.765Z,97932.00
2018-09-05T13:57:56.996Z,97921.75
2018-09-05T14:00:25.271Z,97918.12
2018-09-05T14:02:53.541Z,97927.33
2018-09-05T14:05:21.638Z,97928.61
2018-09-05T14:07:49.804Z,97923.36
2018-09-05T14:10:18.240Z,97913.09
2018-09-05T14:12:47.218Z,97911.16
2018-09-05T14:15:15.387Z,97915.05
2018-09-05T14:17:43.942Z,97911.77
2018-09-05T14:20:12.218Z,97919.19
2018-09-05T14:22:40.558Z,97910.90
2018-09-05T14:25:08.874Z,97903.92
2018-09-05T14:27:37.634Z,97903.55
2018-09-05T14:30:05.814Z,97893.42
2018-09-05T14:32:34.088Z,97894.76
2018-09-05T14:35:02.404Z,97897.02
2018-09-05T14:37:30.645Z,97888.21
2018-09-05T14:39:58.998Z,97883.65
2018-09-05T14:42:27.233Z,97886.98
2018-09-05T14:44:56.349Z,97884.58
2018-09-05T14:47:24.549Z,97883.45
2018-09-05T14:49:52.747Z,97884.77
2018-09-05T14:52:21.041Z,97882.25
2018-09-05T14:54:49.337Z,97889.47
2018-09-05T14:57:17.817Z,97887.09
2018-09-05T14:59:46.299Z,97890.53
2018-09-05T15:02:14.479Z,97891.52
2018-09-05T15:04:42.677Z,97883.28
2018-09-05T15:07:10.857Z,97885.22
2018-09-05T15:09:39.073Z,97883.41
2018-09-05T15:12:07.545Z,97886.09
2018-09-05T15:14:35.775Z,97888.78
2018-09-05T15:17:03.958Z,97890.36
2018-09-05T15:19:32.150Z,97887.77
2018-09-05T15:22:00.472Z,97886.86
2018-09-05T15:24:28.688Z,97889.66
2018-09-05T15:26:56.904Z,97889.36
2018-09-05T15:29:25.160Z,97882.09
2018-09-05T15:31:53.536Z,97882.84
2018-09-05T15:34:21.824Z,97877.63
2018-09-05T15:36:50.090Z,97879.66
2018-09-05T15:39:18.316Z,97877.66
2018-09-05T15:41:46.563Z,97872.59
2018-09-05T15:44:14.757Z,97871.18
2018-09-05T15:46:43.067Z,97872.74
2018-09-05T15:49:11.483Z,97871.42
2018-09-05T15:51:39.722Z,97864.95
2018-09-05T15:54:07.906Z,97864.27
2018-09-05T15:56:36.085Z,97861.95
2018-09-05T15:59:04.293Z,97855.88
2018-09-05T16:01:32.720Z,97862.20
2018-09-05T16:04:00.923Z,97857.74
2018-09-05T16:06:29.134Z,97861.22
2018-09-05T16:08:57.382Z,97855.27
2018-09-05T16:11:25.740Z,97849.55
2018-09-05T16:13:53.938Z,97856.70
2018-09-05T16:16:22.139Z,97856.70
2018-09-05T16:18:50.329Z,97855.97
2018-09-05T16:21:18.496Z,97852.86
2018-09-05T16:23:46.971Z,97859.45
2018-09-05T16:26:15.279Z,97845.50
2018-09-05T16:28:43.484Z,97848.49
2018-09-05T16:31:11.904Z,97854.61
2018-09-05T16:33:40.078Z,97852.13
2018-09-05T16:36:08.372Z,97851.39
2018-09-05T16:38:36.614Z,97845.48
2018-09-05T16:41:04.849Z,97846.38
2018-09-05T16:43:33.025Z,97844.84
2018-09-05T16:46:01.206Z,97850.94
2018-09-05T16:48:29.495Z,97845.91
2018-09-05T16:50:57.667Z,97850.52
2018-09-05T16:53:25.905Z,97850.01
2018-09-05T16:55:54.129Z,97847.80
2018-09-05T16:58:22.340Z,97844.31
2018-09-05T17:00:50.540Z,97845.94
2018-09-05T17:03:19.007Z,97847.56
2018-09-05T17:05:47.794Z,97844.06
2018-09-05T17:08:15.990Z,97850.37
2018-09-05T17:10:44.177Z,97851.66
2018-09-05T17:13:12.656Z,97851.74
2018-09-05T17:15:41.077Z,97851.14
2018-09-05T17:18:09.270Z,97844.99
2018-09-05T17:20:37.738Z,97852.92
2018-09-05T17:23:06.011Z,97849.26
2018-09-05T17:25:34.258Z,97847.48
2018-09-05T17:28:02.592Z,97848.00
2018-09-05T17:30:30.798Z,97850.53
2018-09-05T17:32:58.973Z,97847.95
2018-09-05T17:35:29.048Z,97846.08
2018-09-05T17:37:57.282Z,97847.94
2018-09-05T17:40:25.546Z,97844.79
2018-09-05T17:42:53.733Z,97841.30
2018-09-05T17:45:22.038Z,97836.19
2018-09-05T17:47:50.380Z,97832.66
2018-09-05T17:50:18.605Z,97838.30
2018-09-05T17:52:46.843Z,97840.73
2018-09-05T17:55:15.787Z,97839.62
2018-09-05T17:57:43.999Z,97842.52
2018-09-05T18:00:12.227Z,97840.62
2018-09-05T18:02:40.447Z,97840.25
2018-09-05T18:05:08.725Z,97841.23
2018-09-05T18:07:36.947Z,97845.48
2018-09-05T18:10:05.181Z,97844.37
2018-09-05T18:12:33.399Z,97845.47
2018-09-05T18:15:02.067Z,97844.50
2018-09-05T18:17:30.237Z,97850.06
2018-09-05T18:19:58.453Z,97842.70
2018-09-05T18:22:26.700Z,97844.16
2018-09-05T18:24:54.895Z,97850.85
2018-09-05T18:27:23.076Z,97851.34
2018-09-05T18:29:51.376Z,97852.30
2018-09-05T18:32:19.615Z,97854.14
2018-09-05T18:34:47.814Z,97854.34
2018-09-05T18:37:16.009Z,97860.32
2018-09-05T18:39:44.244Z,97859.42
2018-09-05T18:42:12.558Z,97861.41
2018-09-05T18:44:40.778Z,97867.14
2018-09-05T18:47:08.990Z,97864.79
2018-09-05T18:49:37.184Z,97865.78
2018-09-05T18:52:05.672Z,97868.16
2018-09-05T18:54:33.900Z,97862.66
2018-09-05T18:57:02.101Z,97861.05
2018-09-05T18:59:30.322Z,97857.69
2018-09-05T19:01:58.844Z,97863.08
2018-09-05T19:04:27.021Z,97852.66
2018-09-05T19:06:55.209Z,97856.22
2018-09-05T19:09:23.410Z,97855.45
2018-09-05T19:11:51.611Z,97854.43
2018-09-05T19:14:19.910Z,97856.81
2018-09-05T19:16:49.126Z,97858.17
2018-09-05T19:19:17.396Z,97856.00
2018-09-05T19:21:45.725Z,97857.78
2018-09-05T19:24:13.914Z,97869.22
2018-09-05T19:26:42.116Z,97870.77
2018-09-05T19:29:10.354Z,97864.08
2018-09-05T19:31:38.605Z,97867.65
2018-09-05T19:34:07.178Z,97863.88
2018-09-05T19:36:35.586Z,97864.87
2018-09-05T19:39:04.977Z,97861.13
2018-09-05T19:41:33.210Z,97867.58
2018-09-05T19:44:01.716Z,97867.57
2018-09-05T19:46:29.909Z,97865.39
2018-09-05T19:48:58.127Z,97863.98
2018-09-05T19:51:26.322Z,97862.59
2018-09-05T19:53:54.509Z,97866.14
2018-09-05T19:56:23.000Z,97862.00
2018-09-05T19:58:51.293Z,97864.57
2018-09-05T20:01:19.659Z,97862.36
2018-09-05T20:03:48.041Z,97866.67
2018-09-05T20:06:16.244Z,97865.67
2018-09-05T20:08:44.523Z,97869.01
2018-09-05T20:11:12.736Z,97871.57
2018-09-05T20:13:40.975Z,97880.22
2018-09-05T20:16:09.164Z,97883.16
2018-09-05T20:18:37.445Z,97883.75
2018-09-05T20:21:05.667Z,97885.34
2018-09-05T20:23:33.977Z,97881.78
2018-09-05T20:26:02.071Z,97878.86
2018-09-05T20:28:30.286Z,97876.66
2018-09-05T20:30:58.557Z,97872.72
2018-09-05T20:33:26.814Z,97873.09
2018-09-05T20:35:55.185Z,97875.40
2018-09-05T20:38:23.443Z,97874.06
2018-09-05T20:40:51.634Z,97884.28
2018-09-05T20:43:19.816Z,97876.95
2018-09-05T20:45:48.479Z,97880.28
2018-09-05T20:48:16.687Z,97885.20
2018-09-05T20:50:44.932Z,97881.63
2018-09-05T20:53:13.124Z,97887.13
2018-09-05T20:55:41.450Z,97887.30
2018-09-05T20:58:09.715Z,97887.08
2018-09-05T21:00:38.165Z,97892.36
2018-09-05T21:03:06.582Z,97898.08
2018-09-05T21:05:34.818Z,97899.09
2018-09-05T21:08:03.294Z,97894.28
2018-09-05T21:10:31.620Z,97897.76
2018-09-05T21:12:59.959Z,97891.25
2018-09-05T21:15:28.234Z,97886.17
2018-09-05T21:17:56.470Z,97885.14
2018-09-05T21:20:24.685Z,97885.85
2018-09-05T21:22:52.949Z,97887.16
2018-09-05T21:25:21.167Z,97885.75
2018-09-05T21:27:49.440Z,97884.36
2018-09-05T21:30:17.682Z,97880.62
2018-09-05T21:32:45.871Z,97880.00
2018-09-05T21:35:14.521Z,97877.61
2018-09-05T21:37:42.861Z,97878.00
2018-09-05T21:40:11.140Z,97870.95
2018-09-05T21:42:39.393Z,97875.81
2018-09-05T21:45:07.593Z,97876.55
2018-09-05T21:47:35.788Z,97878.06
2018-09-05T21:50:04.124Z,97880.38
2018-09-05T21:52:32.370Z,97876.25
2018-09-05T21:55:00.581Z,97879.82
2018-09-05T21:57:28.838Z,97875.84
2018-09-05T21:59:57.098Z,97868.78
2018-09-05T22:02:25.372Z,97874.02
2018-09-05T22:04:53.666Z,97881.25
2018-09-05T22:07:22.130Z,97881.23
2018-09-05T22:09:50.410Z,97880.84
2018-09-05T22:12:18.691Z,97877.66
2018-09-05T22:14:46.866Z,97878.62
2018-09-05T22:17:15.082Z,97881.45
2018-09-05T22:19:43.274Z,97880.94
2018-09-05T22:22:11.478Z,97876.58
2018-09-05T22:24:39.765Z,97869.72
2018-09-05T22:27:08.062Z,97877.02
2018-09-05T22:29:36.317Z,97865.98
2018-09-05T22:32:04.561Z,97861.86
2018-09-05T22:34:39.605Z,97869.27
2018-09-05T22:37:07.945Z,97866.05
2018-09-05T22:39:36.385Z,97863.61
2018-09-05T22:42:04.657Z,97862.58
2018-09-05T22:44:44.077Z,97865.45
2018-09-05T22:47:23.750Z,97867.58
2018-09-05T22:51:08.099Z,97871.28
2018-09-05T22:54:00.612Z,97866.92
2018-09-05T22:57:43.522Z,97863.09
2018-09-05T23:02:18.332Z,97863.97
2018-09-05T23:04:58.222Z,97859.91
2018-09-05T23:08:42.591Z,97854.63
2018-09-05T23:11:55.394Z,97855.13
2018-09-05T23:14:34.938Z,97853.77
2018-09-05T23:17:19.902Z,97849.65
2018-09-05T23:20:31.621Z,97850.02
2018-09-05T23:23:11.245Z,97848.20
2018-09-05T23:25:39.710Z,97853.27
2018-09-05T23:28:07.913Z,97840.97
2018-09-05T23:30:36.085Z,97842.67
2018-09-05T23:33:04.739Z,97842.21
2018-09-05T23:35:32.936Z,97829.08
2018-09-05T23:38:01.150Z,97835.08
2018-09-05T23:40:29.569Z,97838.27
2018-09-05T23:42:57.762Z,97831.96
2018-09-05T23:45:26.006Z,97843.67
2018-09-05T23:47:54.495Z,97841.63
2018-09-05T23:50:22.739Z,97843.37
2018-09-05T23:52:50.908Z,97836.48
2018-09-05T23:55:19.293Z,97836.94
2018-09-05T23:57:47.556Z,97826.89
